Auburn, AL

9:04 PM CDT on May 28, 2015 (GMT -0500)
Moore's Mill | | Change Station
CLOSE
Current Station
Personal Weather Station
Location: Auburn, AL
Elevation: 640 ft
Nearby Weather Stations

Elev 640 ft 32.58 °N, 85.45 °W | Updated 4 minutes ago

Thunderstorm
Thunderstorm
68.2 °F
Feels Like 68.2 °F
N
0.0
Wind Variable Wind from ENE

Today
High -- | Low -- °F
--% Chance of Precip.
Yesterday
High -- | Low -- °F
Precip. -- in
5:36 AM 7:42 PM
Waxing Gibbous, 80% visible
Pressure 30.17 in
Visibility 10.0 miles
Clouds Few 1500 ft
Dew Point 68 °F
Humidity 99%
Rainfall 0.00 in
Snow Depth Not available.
UV 0 out of 12
Pollen 4.40 out of 12
Air Quality Not available.
Flu Activity Sporadic
METAR KCSG 290151Z AUTO 33009KT 10SM FEW015 22/19 A3019 RMK AO2 TSE00 SLP217 T02220194

More Conditions Fewer Conditions

Pressure 30.17 in
Visibility 10.0 miles
Clouds Few 1500 ft
Dew Point 68 °F
Humidity 99%
Rainfall 0.00 in
Snow Depth Not available.
UV 0 out of 12
Pollen 4.40 out of 12
Air Quality Not available.
Flu Activity Sporadic
METAR KCSG 290151Z AUTO 33009KT 10SM FEW015 22/19 A3019 RMK AO2 TSE00 SLP217 T02220194

More Conditions Fewer Conditions

10-Day Weather Forecast

Almanac

Astronomy

May. 28, 2015 Rise Set
Actual Time
Civil Twilight
Nautical Twilight
Astronomical Twilight
Moon
Length of Visible Light
Length of Day
Tomorrow will be .
, % of the Moon is Illuminated

Today's Extremes

State Highs State Lows

Community

WunderPhotos

Upload Photos

1,825,125 photos uploaded!

WunderBlogs® & News

Nearby

Air Quality

  Air Quality AQ Index Pollutant
Not available.

Snow Depth

Station Depth Elevation

Earthquake Activity

City Distance Mag. Time & Date
Minimum magnitude displayed is 2.5.

Coastal Water Temperatures

Place Temperature

Stations

Nearby Weather Stations

Station Location Temp. Windchill Dew Point Humidity Wind Precip. Elev Updated Type